Time;durP1;ratioP1;P1;durP2;ratioP2;P2;SDS_P1;SDS_P2;PMS_P1;PMS_P2;Temp;Humidity;BMP_temperature;BMP_pressure;BME280_temperature;BME280_humidity;BME280_pressure;Samples;Min_cycle;Max_cycle;Signal;HPM_P1;HPM_P2
2023/06/12 00:00:14;;;;;;;6.68;5.22;;;;;;;21.80;71.54;98944.38;5070734;28;20234;-76
2023/06/12 00:02:45;;;;;;;6.40;5.20;;;;;;;21.65;74.23;98942.44;5065513;28;20304;-76
2023/06/12 00:05:20;;;;;;;6.13;4.82;;;;;;;21.64;74.82;98948.84;5068104;28;20651;-77
2023/06/12 00:07:51;;;;;;;6.50;4.90;;;;;;;21.42;76.12;98945.06;5068908;28;20206;-77
2023/06/12 00:10:19;;;;;;;5.32;4.82;;;;;;;21.45;76.95;98943.84;5065517;28;20223;-77
2023/06/12 00:12:48;;;;;;;7.93;5.45;;;;;;;21.57;76.03;98945.16;5077758;28;20199;-77
2023/06/12 00:15:18;;;;;;;6.07;4.93;;;;;;;21.56;76.39;98950.72;5105494;28;20222;-76
2023/06/12 00:17:48;;;;;;;5.97;4.80;;;;;;;21.42;79.38;98952.25;5110233;28;20203;-77
2023/06/12 00:20:16;;;;;;;6.60;5.38;;;;;;;21.31;79.13;98952.63;5110161;28;20221;-77
2023/06/12 00:22:45;;;;;;;6.55;5.35;;;;;;;20.95;84.30;98952.16;5113096;27;20720;-77
2023/06/12 00:25:13;;;;;;;6.97;5.03;;;;;;;21.02;84.50;98955.84;5108627;28;20717;-77
2023/06/12 00:27:44;;;;;;;7.00;5.35;;;;;;;20.95;86.49;98950.31;5116683;27;20210;-77
2023/06/12 00:30:14;;;;;;;7.15;5.30;;;;;;;21.06;85.18;98960.75;5112200;28;20278;-77
2023/06/12 00:32:45;;;;;;;6.43;5.28;;;;;;;21.00;86.25;98957.88;5114095;27;20217;-76
2023/06/12 00:35:18;;;;;;;9.10;5.20;;;;;;;20.99;85.45;98958.88;5108164;28;20219;-76
2023/06/12 00:37:47;;;;;;;6.60;5.05;;;;;;;21.14;84.41;98958.03;5113559;28;20191;-77
2023/06/12 00:40:16;;;;;;;6.38;4.95;;;;;;;20.92;83.84;98953.31;5109966;28;20389;-77
2023/06/12 00:42:46;;;;;;;6.32;5.50;;;;;;;21.01;82.89;98956.84;5107132;28;20219;-76
2023/06/12 00:45:15;;;;;;;6.38;5.13;;;;;;;20.55;86.24;98951.97;5111251;28;20202;-77
2023/06/12 00:47:53;;;;;;;7.50;5.20;;;;;;;20.70;88.14;98954.84;5111241;28;20199;-77
2023/06/12 00:50:26;;;;;;;6.30;5.18;;;;;;;20.55;88.92;98956.50;5113783;28;20285;-77
2023/06/12 00:52:55;;;;;;;7.35;5.43;;;;;;;20.52;87.93;98949.63;5110661;28;20195;-76
2023/06/12 00:55:25;;;;;;;6.45;5.50;;;;;;;20.43;91.82;98947.09;5108650;28;20195;-77
2023/06/12 00:57:53;;;;;;;6.03;5.43;;;;;;;20.28;92.64;98946.88;5108703;28;20191;-77
2023/06/12 01:00:22;;;;;;;6.40;5.55;;;;;;;20.25;93.48;98953.41;5113192;28;20195;-77
2023/06/12 01:02:55;;;;;;;6.18;5.55;;;;;;;20.17;93.73;98955.22;5107853;28;20229;-77
2023/06/12 01:05:32;;;;;;;6.65;5.78;;;;;;;20.01;95.83;98953.34;5106730;28;20194;-77
2023/06/12 01:08:18;;;;;;;6.20;5.60;;;;;;;20.01;97.13;98951.50;5111161;28;20191;-77
2023/06/12 01:10:52;;;;;;;6.32;5.70;;;;;;;19.82;96.88;98954.47;5106238;28;20199;-77
2023/06/12 01:13:21;;;;;;;8.27;5.70;;;;;;;19.86;97.03;98946.91;5107767;28;20212;-77
2023/06/12 01:15:49;;;;;;;7.78;5.47;;;;;;;19.82;96.64;98943.72;5113204;27;20247;-77
2023/06/12 01:18:21;;;;;;;6.72;6.00;;;;;;;20.00;94.93;98938.22;5103772;28;20195;-77
2023/06/12 01:20:50;;;;;;;7.35;5.80;;;;;;;19.91;95.35;98940.03;5044779;28;20201;-77
2023/06/12 01:23:44;;;;;;;6.47;5.65;;;;;;;19.73;95.99;98942.81;5044254;28;20225;-77
2023/06/12 01:26:36;;;;;;;6.78;5.15;;;;;;;19.72;97.68;98951.91;5048279;28;20292;-77
2023/06/12 01:29:45;;;;;;;5.97;5.37;;;;;;;19.51;100.00;98954.13;5045437;28;20199;-76
2023/06/12 01:32:17;;;;;;;6.00;5.40;;;;;;;19.52;100.00;98954.97;5046928;28;20683;-77
2023/06/12 01:34:54;;;;;;;7.60;5.85;;;;;;;19.34;100.00;98955.88;5044163;28;20781;-77
2023/06/12 01:37:31;;;;;;;7.17;6.37;;;;;;;19.27;100.00;98954.81;5047162;28;20239;-77
2023/06/12 01:40:01;;;;;;;6.57;5.43;;;;;;;19.30;100.00;98951.84;5100668;28;20198;-76
2023/06/12 01:42:31;;;;;;;6.50;5.80;;;;;;;19.38;100.00;98949.16;5109565;28;20618;-77
2023/06/12 01:44:59;;;;;;;6.20;5.60;;;;;;;19.19;100.00;98954.75;5115352;27;20206;-77
2023/06/12 01:47:29;;;;;;;6.60;5.90;;;;;;;19.04;100.00;98959.03;5110894;28;20202;-76
2023/06/12 01:49:58;;;;;;;7.83;6.03;;;;;;;18.76;100.00;98955.63;5113038;28;20704;-76
2023/06/12 01:52:27;;;;;;;8.97;5.70;;;;;;;18.68;100.00;98963.59;5111783;28;20183;-77
2023/06/12 01:54:58;;;;;;;7.37;6.23;;;;;;;18.51;100.00;98963.41;5102580;28;20199;-76
2023/06/12 01:57:27;;;;;;;6.27;5.67;;;;;;;18.51;100.00;98970.63;5112882;28;20211;-76
2023/06/12 01:59:57;;;;;;;7.83;6.07;;;;;;;18.53;100.00;98958.75;5111406;28;20226;-76
2023/06/12 02:02:26;;;;;;;6.93;5.93;;;;;;;18.28;100.00;98959.50;5108813;28;20267;-77
2023/06/12 02:04:57;;;;;;;6.87;6.17;;;;;;;18.34;100.00;98961.59;5112536;28;20227;-76
2023/06/12 02:07:25;;;;;;;6.97;6.27;;;;;;;18.05;100.00;98967.16;5109700;28;20276;-77
2023/06/12 02:09:53;;;;;;;7.07;5.93;;;;;;;18.21;100.00;98967.31;5109918;28;20248;-76
2023/06/12 02:12:22;;;;;;;6.67;5.97;;;;;;;18.22;100.00;98965.47;5076252;28;20669;-77
2023/06/12 02:14:50;;;;;;;6.63;5.70;;;;;;;18.16;100.00;98968.75;5101403;28;20195;-76
2023/06/12 02:17:19;;;;;;;7.10;6.40;;;;;;;18.15;100.00;98975.97;5114349;28;20201;-77
2023/06/12 02:19:48;;;;;;;6.30;5.70;;;;;;;18.09;100.00;98976.56;5113886;28;20191;-76
2023/06/12 02:22:18;;;;;;;10.23;6.00;;;;;;;18.05;100.00;98975.19;5050728;28;20227;-76
2023/06/12 02:24:47;;;;;;;7.13;6.13;;;;;;;18.18;100.00;98974.81;5048027;28;20291;-77
2023/06/12 02:27:15;;;;;;;7.03;6.00;;;;;;;18.10;100.00;98977.41;5048710;28;20200;-76
2023/06/12 02:29:44;;;;;;;8.83;6.13;;;;;;;18.20;100.00;98978.19;5049363;28;20239;-77
2023/06/12 02:32:13;;;;;;;7.97;5.90;;;;;;;18.34;100.00;98982.19;5047601;28;20197;-77
2023/06/12 02:34:43;;;;;;;6.47;5.70;;;;;;;18.26;100.00;98978.44;5049131;28;20225;-77
2023/06/12 02:37:11;;;;;;;7.13;5.97;;;;;;;18.33;100.00;98981.31;5048477;28;20208;-76
2023/06/12 02:39:41;;;;;;;7.17;6.20;;;;;;;18.39;100.00;98988.78;5047983;28;20197;-77
2023/06/12 02:42:10;;;;;;;6.37;5.73;;;;;;;18.49;100.00;98988.72;5045564;28;20196;-76
2023/06/12 02:44:38;;;;;;;7.75;6.18;;;;;;;18.51;100.00;98981.34;5046754;28;20212;-76
2023/06/12 02:47:07;;;;;;;8.73;6.03;;;;;;;18.56;100.00;98987.09;5079102;28;20195;-77
2023/06/12 02:49:37;;;;;;;7.33;6.10;;;;;;;18.53;100.00;98985.59;5103375;28;20206;-76
2023/06/12 02:52:06;;;;;;;9.17;6.87;;;;;;;18.41;100.00;98985.94;5115876;28;20220;-77
2023/06/12 02:54:35;;;;;;;6.70;5.97;;;;;;;18.41;100.00;98985.94;5109952;28;20206;-76
2023/06/12 02:57:06;;;;;;;10.05;5.95;;;;;;;18.37;100.00;98990.78;5108160;28;20232;-77
2023/06/12 02:59:36;;;;;;;7.47;6.30;;;;;;;18.33;100.00;98991.22;5112964;27;20531;-76
2023/06/12 03:02:05;;;;;;;7.13;6.43;;;;;;;18.13;100.00;98985.97;5114592;28;20227;-77
2023/06/12 03:04:35;;;;;;;8.37;6.13;;;;;;;18.03;100.00;98986.03;5115837;28;20211;-77
2023/06/12 03:07:05;;;;;;;6.50;5.90;;;;;;;18.11;100.00;98987.97;5110143;28;20191;-77
2023/06/12 03:09:35;;;;;;;6.43;5.80;;;;;;;18.02;100.00;98986.19;5110760;28;20223;-76
2023/06/12 03:12:05;;;;;;;7.30;6.40;;;;;;;18.08;100.00;98984.75;5109430;28;20195;-76
2023/06/12 03:14:34;;;;;;;6.30;5.77;;;;;;;18.07;100.00;98994.63;5111104;28;20673;-77
2023/06/12 03:17:02;;;;;;;6.87;6.23;;;;;;;18.00;100.00;98994.38;5066684;28;20220;-77
2023/06/12 03:19:31;;;;;;;7.87;6.13;;;;;;;17.98;100.00;98998.22;5064756;28;20200;-77
2023/06/12 03:22:01;;;;;;;8.67;5.90;;;;;;;18.01;100.00;99000.59;5064190;28;20196;-76
2023/06/12 03:24:30;;;;;;;7.10;6.40;;;;;;;18.17;100.00;99000.78;5062578;28;20299;-76
2023/06/12 03:26:59;;;;;;;7.47;6.23;;;;;;;17.83;100.00;98999.69;5062684;28;20204;-77
2023/06/12 03:29:29;;;;;;;8.70;6.80;;;;;;;17.85;100.00;99001.22;5071449;28;20195;-77
2023/06/12 03:31:58;;;;;;;7.20;6.50;;;;;;;17.61;100.00;99009.75;5068226;28;20216;-76
2023/06/12 03:34:31;;;;;;;8.23;6.40;;;;;;;17.72;100.00;99003.41;5072364;28;20241;-76
2023/06/12 03:37:00;;;;;;;8.27;6.20;;;;;;;17.77;100.00;99000.28;5109844;28;20190;-77
2023/06/12 03:39:28;;;;;;;8.27;6.30;;;;;;;17.86;100.00;99005.59;5109538;28;20199;-76
2023/06/12 03:41:58;;;;;;;6.97;6.27;;;;;;;18.06;100.00;99000.16;5104920;28;20369;-77
2023/06/12 03:44:28;;;;;;;7.33;6.10;;;;;;;18.09;100.00;99011.41;5112253;28;20230;-76
2023/06/12 03:46:56;;;;;;;8.67;6.17;;;;;;;18.21;100.00;99009.34;5112062;28;20206;-76
2023/06/12 03:49:25;;;;;;;6.63;6.03;;;;;;;18.18;100.00;99005.16;5109473;28;20195;-76
2023/06/12 03:51:53;;;;;;;6.60;6.00;;;;;;;18.31;100.00;99007.47;5114449;28;20191;-76
2023/06/12 03:54:21;;;;;;;8.97;6.23;;;;;;;18.42;100.00;99012.59;5086005;28;20659;-77
2023/06/12 03:56:50;;;;;;;10.20;6.00;;;;;;;18.47;100.00;99023.72;5080718;28;20677;-77
2023/06/12 03:59:18;;;;;;;6.63;6.00;;;;;;;18.28;100.00;99016.66;5087648;28;20201;-76
2023/06/12 04:01:49;;;;;;;7.30;6.53;;;;;;;18.29;100.00;99015.66;5092126;28;20191;-76
2023/06/12 04:04:18;;;;;;;6.50;5.90;;;;;;;18.19;100.00;99019.41;5083058;28;20215;-77
2023/06/12 04:06:46;;;;;;;9.07;6.73;;;;;;;18.12;100.00;99029.84;5086738;28;20192;-77
2023/06/12 04:09:15;;;;;;;8.33;6.70;;;;;;;18.17;100.00;99030.28;5085051;28;20322;-76
2023/06/12 04:11:44;;;;;;;8.70;6.43;;;;;;;18.12;100.00;99031.69;5088393;28;20187;-76
2023/06/12 04:14:12;;;;;;;7.10;6.40;;;;;;;18.05;100.00;99033.28;5113309;27;20677;-77
2023/06/12 04:16:41;;;;;;;11.07;6.70;;;;;;;18.17;100.00;99032.94;5108468;28;20199;-77
2023/06/12 04:19:12;;;;;;;10.77;7.13;;;;;;;18.20;100.00;99029.97;5109404;28;20643;-77
2023/06/12 04:21:41;;;;;;;7.07;6.37;;;;;;;18.37;100.00;99038.22;5114124;28;20187;-76
2023/06/12 04:24:15;;;;;;;8.53;6.37;;;;;;;18.62;100.00;99039.28;5111451;28;20199;-77
2023/06/12 04:26:46;;;;;;;9.13;6.57;;;;;;;18.74;100.00;99033.59;5108869;28;20236;-76
2023/06/12 04:29:16;;;;;;;6.73;6.03;;;;;;;18.74;100.00;99040.81;5113096;28;20186;-77
2023/06/12 04:31:46;;;;;;;7.17;6.47;;;;;;;18.92;100.00;99038.97;5091557;28;20285;-77
2023/06/12 04:34:16;;;;;;;7.73;6.73;;;;;;;18.84;100.00;99041.56;5108682;28;20234;-77
2023/06/12 04:36:45;;;;;;;6.80;6.10;;;;;;;18.70;100.00;99042.09;5107635;28;20207;-77
2023/06/12 04:39:15;;;;;;;7.50;6.00;;;;;;;18.87;100.00;99044.78;5113673;28;20256;-77
2023/06/12 04:41:44;;;;;;;7.70;6.53;;;;;;;18.65;100.00;99041.72;5110307;28;20788;-77
2023/06/12 04:44:14;;;;;;;7.10;5.70;;;;;;;18.84;100.00;99041.56;5110093;28;20228;-76
2023/06/12 04:46:42;;;;;;;7.10;6.17;;;;;;;18.95;100.00;99035.97;5110244;28;20191;-77
2023/06/12 04:49:10;;;;;;;8.57;6.40;;;;;;;19.04;100.00;99039.56;5108981;28;20205;-77
2023/06/12 04:51:42;;;;;;;6.82;6.00;;;;;;;19.03;100.00;99044.09;5113597;28;20210;-77
2023/06/12 04:54:13;;;;;;;6.77;5.97;;;;;;;19.13;100.00;99039.47;5104989;28;20215;-77
2023/06/12 04:56:44;;;;;;;7.77;6.40;;;;;;;19.18;100.00;99036.31;5109128;28;20722;-77
2023/06/12 04:59:16;;;;;;;7.07;6.37;;;;;;;19.15;100.00;99037.47;5112098;28;20199;-76
2023/06/12 05:01:45;;;;;;;8.60;6.10;;;;;;;19.08;100.00;99041.78;5109836;28;20204;-76
2023/06/12 05:04:14;;;;;;;7.13;6.00;;;;;;;19.26;100.00;99039.06;5106253;28;20199;-76
2023/06/12 05:06:45;;;;;;;7.50;6.10;;;;;;;19.18;100.00;99039.00;5113740;27;20218;-76
2023/06/12 05:09:13;;;;;;;6.90;6.20;;;;;;;19.10;100.00;99037.09;5106467;28;20217;-77
2023/06/12 05:11:42;;;;;;;9.47;6.60;;;;;;;19.25;100.00;99036.53;5109763;28;20197;-76
2023/06/12 05:14:11;;;;;;;9.40;6.13;;;;;;;19.37;100.00;99035.28;5105762;28;20259;-77
2023/06/12 05:16:39;;;;;;;7.57;6.30;;;;;;;19.63;100.00;99029.94;5113691;27;20195;-77
2023/06/12 05:19:10;;;;;;;6.80;6.10;;;;;;;19.83;100.00;99035.94;5109617;28;20646;-77
2023/06/12 05:21:41;;;;;;;6.90;6.20;;;;;;;19.60;100.00;99046.41;5112303;28;20198;-77
2023/06/12 05:24:11;;;;;;;7.65;6.40;;;;;;;19.70;100.00;99045.28;5108581;28;20187;-77
2023/06/12 05:26:39;;;;;;;8.13;6.55;;;;;;;19.73;100.00;99038.75;5104767;28;20214;-77
2023/06/12 05:29:08;;;;;;;7.60;6.13;;;;;;;19.97;100.00;99040.69;5109417;28;20191;-77
2023/06/12 05:31:36;;;;;;;7.18;6.15;;;;;;;19.84;100.00;99040.31;5111158;28;20217;-77
2023/06/12 05:34:05;;;;;;;7.97;6.20;;;;;;;19.75;100.00;99039.41;5114452;27;20219;-77
2023/06/12 05:36:33;;;;;;;8.32;7.30;;;;;;;19.87;100.00;99046.19;5108373;28;20223;-76
2023/06/12 05:39:02;;;;;;;6.75;6.00;;;;;;;19.91;100.00;99036.84;5108482;28;20650;-77
2023/06/12 05:41:38;;;;;;;10.55;6.65;;;;;;;19.82;100.00;99045.84;5109771;28;20245;-77
2023/06/12 05:44:08;;;;;;;8.65;6.70;;;;;;;19.93;100.00;99050.94;5112675;28;20199;-77
2023/06/12 05:46:36;;;;;;;8.73;5.93;;;;;;;20.17;100.00;99043.97;5111676;28;20301;-77
2023/06/12 05:49:05;;;;;;;7.88;6.70;;;;;;;20.39;100.00;99050.63;5105666;28;20206;-76
2023/06/12 05:51:33;;;;;;;8.05;6.53;;;;;;;20.51;100.00;99043.97;5107256;28;20194;-77
2023/06/12 05:54:02;;;;;;;6.80;6.20;;;;;;;20.57;100.00;99038.78;5119719;27;20203;-76
2023/06/12 05:56:30;;;;;;;6.50;5.75;;;;;;;20.61;100.00;99038.44;5112373;28;20199;-77
2023/06/12 05:59:01;;;;;;;7.85;6.38;;;;;;;20.71;100.00;99039.97;5111932;28;20203;-77
2023/06/12 06:01:31;;;;;;;6.93;6.22;;;;;;;20.84;100.00;99034.97;5111768;28;20195;-77
2023/06/12 06:04:00;;;;;;;9.18;6.45;;;;;;;20.88;100.00;99042.69;5114330;28;20191;-77
2023/06/12 06:06:30;;;;;;;7.25;6.20;;;;;;;21.03;100.00;99052.63;5114640;28;20218;-76
2023/06/12 06:09:00;;;;;;;7.95;5.85;;;;;;;21.19;100.00;99049.09;5116585;28;20199;-76
2023/06/12 06:11:29;;;;;;;7.07;6.38;;;;;;;21.32;100.00;99057.53;5111597;28;20641;-77
2023/06/12 06:13:58;;;;;;;8.45;5.93;;;;;;;21.53;100.00;99054.34;5115707;28;20191;-77
2023/06/12 06:16:28;;;;;;;7.05;6.15;;;;;;;21.52;100.00;99054.50;5112087;28;20197;-77
2023/06/12 06:19:16;;;;;;;6.30;5.80;;;;;;;21.61;100.00;99064.25;5117005;28;20224;-77
2023/06/12 06:21:46;;;;;;;8.70;6.50;;;;;;;21.72;99.96;99058.53;5104807;28;20199;-77
2023/06/12 06:24:15;;;;;;;7.03;6.25;;;;;;;21.89;99.11;99062.84;5110567;28;20203;-77
2023/06/12 06:26:44;;;;;;;8.77;6.22;;;;;;;21.85;98.62;99068.78;5106691;28;20222;-77
2023/06/12 06:29:13;;;;;;;6.78;6.13;;;;;;;21.98;96.99;99059.09;5114342;28;20194;-77
2023/06/12 06:31:44;;;;;;;7.10;6.40;;;;;;;22.03;96.43;99057.75;5114838;28;20199;-77
2023/06/12 06:34:13;;;;;;;7.75;6.32;;;;;;;22.17;95.10;99063.28;5112473;28;20219;-77
2023/06/12 06:36:42;;;;;;;6.90;6.20;;;;;;;22.38;90.76;99059.16;5114642;28;20206;-77
2023/06/12 06:39:10;;;;;;;6.30;5.70;;;;;;;22.38;89.75;99072.66;5113503;28;20285;-77
2023/06/12 06:41:39;;;;;;;6.47;5.82;;;;;;;22.57;88.51;99072.22;5109414;28;20256;-77
2023/06/12 06:44:07;;;;;;;8.07;6.60;;;;;;;22.54;86.99;99070.72;5115197;27;20195;-77
2023/06/12 06:46:35;;;;;;;8.27;5.97;;;;;;;22.64;89.63;99075.06;5115797;28;20237;-77
2023/06/12 06:49:05;;;;;;;8.45;6.13;;;;;;;22.82;89.41;99070.22;5089287;28;20219;-77
2023/06/12 06:51:34;;;;;;;6.38;5.78;;;;;;;22.87;88.59;99067.00;5115637;27;20198;-76
2023/06/12 06:54:02;;;;;;;6.63;5.78;;;;;;;23.10;86.26;99071.41;5112147;28;20191;-77
2023/06/12 06:56:31;;;;;;;6.43;5.82;;;;;;;23.20;85.16;99067.63;5114748;28;20195;-77
2023/06/12 06:58:59;;;;;;;10.35;6.30;;;;;;;23.33;81.85;99065.97;5107701;28;20195;-77
2023/06/12 07:01:29;;;;;;;6.18;5.60;;;;;;;23.37;84.89;99067.31;5115873;28;20653;-77
2023/06/12 07:03:57;;;;;;;6.68;5.97;;;;;;;23.43;81.87;99065.72;5115202;28;20232;-77
2023/06/12 07:06:27;;;;;;;7.97;5.47;;;;;;;23.41;84.65;99060.50;5110085;28;20246;-76
2023/06/12 07:08:56;;;;;;;6.57;5.97;;;;;;;23.72;83.94;99067.69;5107604;28;20267;-77
2023/06/12 07:11:24;;;;;;;6.47;5.78;;;;;;;23.86;79.24;99066.88;5107938;28;20210;-77
2023/06/12 07:13:53;;;;;;;6.72;6.03;;;;;;;23.75;79.18;99075.44;5117207;27;20187;-77
2023/06/12 07:16:21;;;;;;;5.88;5.38;;;;;;;23.91;70.61;99072.53;5115359;27;20205;-77
2023/06/12 07:18:50;;;;;;;8.57;5.68;;;;;;;24.06;72.49;99063.59;5111935;28;20247;-77
2023/06/12 07:21:18;;;;;;;6.50;5.90;;;;;;;23.98;74.35;99057.25;5114920;27;20591;-77
2023/06/12 07:23:48;;;;;;;6.80;6.10;;;;;;;23.92;74.87;99059.84;5114106;28;20299;-77
2023/06/12 07:26:16;;;;;;;7.03;5.80;;;;;;;23.96;74.40;99064.72;5108605;28;20420;-77
2023/06/12 07:28:56;;;;;;;6.35;5.70;;;;;;;24.28;69.58;99068.06;5114163;28;20191;-77
2023/06/12 07:31:28;;;;;;;6.00;5.40;;;;;;;24.24;67.37;99067.63;5089747;28;20203;-77
2023/06/12 07:33:56;;;;;;;6.22;5.63;;;;;;;24.33;66.52;99067.53;5092092;28;20219;-77
2023/06/12 07:36:25;;;;;;;6.95;6.07;;;;;;;24.27;67.38;99063.69;5084953;28;20223;-77
2023/06/12 07:38:55;;;;;;;7.50;6.18;;;;;;;24.60;67.59;99060.56;5079839;28;20278;-76
2023/06/12 07:41:26;;;;;;;6.70;6.03;;;;;;;24.59;67.53;99057.00;5082737;28;20199;-77
2023/06/12 07:43:57;;;;;;;8.48;6.57;;;;;;;24.75;67.43;99059.50;5085834;28;20196;-77
2023/06/12 07:46:26;;;;;;;6.00;5.50;;;;;;;24.77;66.03;99067.44;5084831;28;20803;-76
2023/06/12 07:48:54;;;;;;;6.75;6.10;;;;;;;24.65;63.18;99066.25;5090776;28;20198;-78
2023/06/12 07:51:23;;;;;;;7.43;5.80;;;;;;;24.73;63.65;99061.56;5114736;28;20301;-76
2023/06/12 07:53:51;;;;;;;7.75;6.18;;;;;;;24.73;65.63;99058.03;5111212;28;20219;-77
2023/06/12 07:56:22;;;;;;;6.82;6.13;;;;;;;24.84;63.53;99055.66;5109807;28;20269;-77
2023/06/12 07:58:51;;;;;;;7.10;6.13;;;;;;;25.09;61.36;99056.16;5114980;28;20270;-77
2023/06/12 08:01:22;;;;;;;6.55;5.57;;;;;;;25.05;62.28;99056.72;5113545;27;20199;-77
2023/06/12 08:03:56;;;;;;;7.20;6.05;;;;;;;25.33;61.81;99044.06;5114537;28;20198;-77
2023/06/12 08:06:26;;;;;;;7.93;6.30;;;;;;;25.34;59.09;99040.28;5106657;28;20308;-76
2023/06/12 08:08:56;;;;;;;5.93;5.40;;;;;;;25.45;58.21;99044.34;5106378;28;20206;-76
2023/06/12 08:11:26;;;;;;;8.05;5.72;;;;;;;25.56;58.17;99048.41;5110353;28;20210;-77
2023/06/12 08:13:54;;;;;;;7.38;5.68;;;;;;;25.74;55.06;99048.78;5111090;28;20205;-76
2023/06/12 08:16:24;;;;;;;6.55;5.63;;;;;;;25.80;53.15;99041.72;5111131;28;20219;-78
2023/06/12 08:18:52;;;;;;;7.28;5.88;;;;;;;25.83;52.95;99041.31;5107793;28;20199;-77
2023/06/12 08:21:21;;;;;;;6.80;5.95;;;;;;;25.55;52.79;99039.41;5114130;28;20237;-77
2023/06/12 08:23:50;;;;;;;7.20;5.70;;;;;;;25.57;51.62;99037.34;5115628;27;20227;-77
2023/06/12 08:26:19;;;;;;;8.30;5.75;;;;;;;25.91;52.14;99033.00;5106886;28;20201;-77
2023/06/12 08:28:51;;;;;;;8.45;6.00;;;;;;;25.96;48.98;99027.81;5108205;28;20286;-77
2023/06/12 08:31:21;;;;;;;7.07;5.75;;;;;;;25.95;49.04;99024.25;5114223;28;20195;-77
2023/06/12 08:33:55;;;;;;;7.65;5.57;;;;;;;26.18;46.74;99026.69;5107584;28;20282;-77
2023/06/12 08:36:23;;;;;;;7.75;6.25;;;;;;;26.18;46.51;99023.16;5109038;28;20198;-77
2023/06/12 08:38:51;;;;;;;8.40;6.82;;;;;;;26.29;49.07;99024.44;5114375;28;20186;-77
2023/06/12 08:41:21;;;;;;;7.10;6.40;;;;;;;26.25;48.01;99015.88;5128630;27;20304;-77
2023/06/12 08:43:52;;;;;;;17.17;14.05;;;;;;;26.49;45.80;99018.06;5132872;27;20216;-77
2023/06/12 08:46:21;;;;;;;13.00;11.25;;;;;;;26.23;46.70;99004.34;5126352;27;20244;-77
2023/06/12 08:48:50;;;;;;;6.93;5.20;;;;;;;26.34;45.35;99006.47;5129956;27;20190;-77
2023/06/12 08:51:20;;;;;;;9.45;5.70;;;;;;;26.54;45.12;99009.31;5130697;27;20568;-76
2023/06/12 08:53:48;;;;;;;6.43;5.32;;;;;;;26.19;45.55;99008.53;5126176;27;20243;-77
2023/06/12 08:56:18;;;;;;;6.53;5.80;;;;;;;26.48;45.02;99010.97;5127155;27;20194;-77
2023/06/12 08:58:46;;;;;;;6.50;5.90;;;;;;;26.39;47.07;99009.47;5120500;27;20230;-77
2023/06/12 09:01:17;;;;;;;6.57;5.88;;;;;;;26.64;46.08;99000.78;5111051;28;20191;-77
2023/06/12 09:03:54;;;;;;;7.28;5.97;;;;;;;26.66;45.12;98995.97;5113753;28;20278;-77
2023/06/12 09:06:23;;;;;;;6.70;5.93;;;;;;;27.02;43.62;98991.03;5110827;28;20218;-77
2023/06/12 09:08:51;;;;;;;11.20;6.05;;;;;;;27.22;43.46;98991.06;5110711;28;20211;-77
2023/06/12 09:11:19;;;;;;;7.35;5.30;;;;;;;27.16;41.47;98999.19;5108924;28;20199;-77
2023/06/12 09:13:51;;;;;;;8.25;5.28;;;;;;;27.26;40.19;98997.72;5107256;28;20217;-77
2023/06/12 09:16:21;;;;;;;7.05;5.75;;;;;;;27.22;39.97;98996.50;5111337;28;20681;-77
2023/06/12 09:18:51;;;;;;;6.30;5.38;;;;;;;27.43;39.64;98989.16;5111901;28;20199;-77
2023/06/12 09:21:23;;;;;;;8.00;5.85;;;;;;;27.70;39.30;98999.00;5109330;28;20703;-77
2023/06/12 09:23:52;;;;;;;7.70;5.53;;;;;;;27.48;38.40;98992.06;5104587;28;20191;-77
2023/06/12 09:26:21;;;;;;;7.03;5.82;;;;;;;27.43;38.77;98989.97;5110372;28;20194;-77
2023/06/12 09:28:55;;;;;;;6.22;5.63;;;;;;;27.75;39.25;98995.63;5114722;27;20363;-77
2023/06/12 09:31:24;;;;;;;6.30;5.70;;;;;;;27.69;38.20;98996.44;5113505;27;20206;-76
2023/06/12 09:33:53;;;;;;;6.53;5.53;;;;;;;27.19;40.26;98990.59;5112525;28;20226;-77
2023/06/12 09:36:30;;;;;;;8.30;6.03;;;;;;;27.17;40.01;98996.25;5108352;28;20205;-76
2023/06/12 09:39:00;;;;;;;9.70;5.88;;;;;;;27.58;38.60;98997.91;5113719;28;20225;-77
2023/06/12 09:41:29;;;;;;;6.93;6.03;;;;;;;27.74;39.00;98993.94;5101351;28;20206;-78
2023/06/12 09:44:03;;;;;;;6.90;5.80;;;;;;;27.77;38.67;98988.06;5104884;28;20633;-78
2023/06/12 09:46:33;;;;;;;6.57;5.68;;;;;;;27.62;38.43;99002.72;5110195;28;20286;-77
2023/06/12 09:49:03;;;;;;;6.57;5.97;;;;;;;27.77;37.94;98994.34;5110376;28;20214;-77
2023/06/12 09:51:33;;;;;;;6.05;5.47;;;;;;;28.31;37.93;98990.44;5108589;28;20217;-77
2023/06/12 09:54:05;;;;;;;6.28;5.72;;;;;;;28.09;36.70;98989.03;5108347;28;20222;-77
2023/06/12 09:56:34;;;;;;;8.00;6.03;;;;;;;28.04;36.38;99000.56;5111854;28;20252;-77
2023/06/12 09:59:05;;;;;;;6.55;5.97;;;;;;;27.99;36.49;98994.06;5112099;28;20195;-78
2023/06/12 10:01:39;;;;;;;9.75;5.97;;;;;;;28.23;36.37;98990.63;5106084;28;20197;-76
2023/06/12 10:04:14;;;;;;;6.35;5.70;;;;;;;28.14;36.46;98991.94;5113652;27;20218;-78
2023/06/12 10:06:46;;;;;;;6.93;5.93;;;;;;;28.72;35.13;98992.72;5113126;28;20194;-77
2023/06/12 10:09:15;;;;;;;6.10;5.55;;;;;;;28.83;34.68;98998.50;5107445;28;20397;-78
2023/06/12 10:11:45;;;;;;;6.28;5.70;;;;;;;28.54;34.69;99002.66;5109722;28;20188;-78
2023/06/12 10:14:14;;;;;;;6.68;5.28;;;;;;;28.63;34.61;99004.94;5110838;28;20222;-77
2023/06/12 10:16:47;;;;;;;6.60;6.00;;;;;;;28.72;34.55;98991.88;5107444;28;20202;-78
2023/06/12 10:19:16;;;;;;;8.20;6.30;;;;;;;28.79;34.15;98989.94;5112845;28;20491;-78
2023/06/12 10:21:46;;;;;;;6.57;5.53;;;;;;;29.24;33.91;98987.97;5104797;28;20203;-77
2023/06/12 10:24:14;;;;;;;7.45;6.15;;;;;;;29.18;34.50;98982.56;5108288;28;20218;-77
2023/06/12 10:26:43;;;;;;;6.93;5.70;;;;;;;29.00;34.27;98994.25;5105919;28;20245;-78
2023/06/12 10:29:26;;;;;;;6.43;5.82;;;;;;;28.91;34.88;98988.22;5047734;28;20221;-77
2023/06/12 10:32:06;;;;;;;6.60;6.00;;;;;;;29.19;34.56;98982.34;5049991;28;20225;-78
2023/06/12 10:34:36;;;;;;;6.72;6.00;;;;;;;29.75;33.08;98981.41;5043043;28;20233;-78
2023/06/12 10:37:22;;;;;;;7.18;6.35;;;;;;;29.07;34.34;98976.78;4929641;29;20601;-77
2023/06/12 10:40:09;;;;;;;6.75;6.15;;;;;;;29.30;33.64;98978.03;4930901;29;20288;-77
2023/06/12 10:42:43;;;;;;;6.25;5.65;;;;;;;29.53;33.38;98980.16;4932494;29;20243;-78
2023/06/12 10:45:19;;;;;;;6.22;5.50;;;;;;;29.91;32.40;98972.59;4936184;29;20208;-79
2023/06/12 10:48:28;;;;;;;6.70;5.90;;;;;;;29.60;32.93;98970.00;4983991;28;20217;-78
2023/06/12 10:50:58;;;;;;;6.38;5.78;;;;;;;30.43;33.54;98964.84;5007689;28;20206;-77
2023/06/12 10:53:30;;;;;;;7.10;5.80;;;;;;;30.29;33.00;98968.81;5006728;28;20199;-77
2023/06/12 10:56:05;;;;;;;7.03;6.10;;;;;;;30.10;33.09;98967.16;5058971;28;20196;-77
2023/06/12 10:58:37;;;;;;;6.40;5.75;;;;;;;29.10;34.07;98961.84;5072761;28;20275;-77
2023/06/12 11:01:10;;;;;;;6.82;5.78;;;;;;;29.38;34.33;98953.19;5083456;28;20187;-76
2023/06/12 11:03:42;;;;;;;6.70;6.03;;;;;;;28.91;35.29;98957.38;5111209;28;20272;-77
2023/06/12 11:06:15;;;;;;;7.57;6.53;;;;;;;29.23;33.98;98952.69;5115670;28;20202;-77
2023/06/12 11:08:46;;;;;;;8.40;6.53;;;;;;;29.45;33.35;98942.22;5113501;28;20302;-76
2023/06/12 11:11:16;;;;;;;6.57;5.97;;;;;;;29.39;34.15;98943.13;5108867;28;20236;-76
2023/06/12 11:13:45;;;;;;;6.78;6.00;;;;;;;29.55;34.35;98939.84;5107951;28;20260;-78
2023/06/12 11:16:16;;;;;;;7.18;6.50;;;;;;;29.34;35.07;98939.19;5107190;28;20195;-77
2023/06/12 11:18:46;;;;;;;6.55;5.85;;;;;;;29.40;35.19;98934.69;5117234;27;20205;-77
2023/06/12 11:21:14;;;;;;;9.57;6.78;;;;;;;30.09;33.39;98949.09;5111253;28;20199;-77
2023/06/12 11:23:45;;;;;;;7.15;5.97;;;;;;;30.11;32.91;98947.84;5112684;28;20191;-77
2023/06/12 11:26:20;;;;;;;6.13;5.60;;;;;;;30.22;32.83;98953.59;5027220;28;20678;-79
2023/06/12 11:28:50;;;;;;;8.38;6.30;;;;;;;30.30;32.46;98945.88;5029779;28;20217;-77
2023/06/12 11:31:19;;;;;;;6.68;5.93;;;;;;;31.19;31.76;98941.41;4958980;28;20195;-78
2023/06/12 11:33:49;;;;;;;6.40;5.90;;;;;;;30.67;32.10;98940.34;4965869;28;20726;-77
2023/06/12 11:36:18;;;;;;;6.88;6.20;;;;;;;30.34;32.33;98949.00;4954535;28;20199;-78
2023/06/12 11:38:47;;;;;;;8.70;6.10;;;;;;;29.70;33.29;98937.56;4952822;28;20198;-77
2023/06/12 11:41:19;;;;;;;7.80;5.90;;;;;;;30.00;33.73;98940.34;4950268;28;20264;-77
2023/06/12 11:43:47;;;;;;;7.82;6.00;;;;;;;29.94;33.43;98935.81;4951380;28;20291;-78